sensor_id;sensor_type;location;lat;lon;timestamp;pressure;altitude;pressure_sealevel;temperature;humidity
46129;BME280;31860;45.186;5.790;2022-12-10T00:02:03;97796.63;;;8.90;100.00
46129;BME280;31860;45.186;5.790;2022-12-10T00:04:28;97807.91;;;8.91;100.00
46129;BME280;31860;45.186;5.790;2022-12-10T00:06:54;97797.50;;;8.91;100.00
46129;BME280;31860;45.186;5.790;2022-12-10T00:09:20;97795.75;;;8.91;100.00
46129;BME280;31860;45.186;5.790;2022-12-10T00:11:45;97803.56;;;8.91;100.00
46129;BME280;31860;45.186;5.790;2022-12-10T00:14:12;97805.28;;;8.92;100.00
46129;BME280;31860;45.186;5.790;2022-12-10T00:16:38;97813.94;;;8.93;100.00
46129;BME280;31860;45.186;5.790;2022-12-10T00:19:04;97804.44;;;8.92;100.00
46129;BME280;31860;45.186;5.790;2022-12-10T00:21:31;97807.84;;;8.95;100.00
46129;BME280;31860;45.186;5.790;2022-12-10T00:23:58;97808.72;;;8.94;100.00
46129;BME280;31860;45.186;5.790;2022-12-10T00:26:26;97810.44;;;8.95;100.00
46129;BME280;31860;45.186;5.790;2022-12-10T00:28:53;97807.81;;;8.97;100.00
46129;BME280;31860;45.186;5.790;2022-12-10T00:31:30;97804.31;;;8.98;100.00
46129;BME280;31860;45.186;5.790;2022-12-10T00:33:58;97806.03;;;8.99;100.00
46129;BME280;31860;45.186;5.790;2022-12-10T00:36:27;97807.75;;;9.00;100.00
46129;BME280;31860;45.186;5.790;2022-12-10T00:38:53;97799.94;;;9.00;100.00
46129;BME280;31860;45.186;5.790;2022-12-10T00:41:19;97807.72;;;9.01;100.00
46129;BME280;31860;45.186;5.790;2022-12-10T00:43:45;97793.88;;;9.01;100.00
46129;BME280;31860;45.186;5.790;2022-12-10T00:46:12;97799.03;;;9.02;100.00
46129;BME280;31860;45.186;5.790;2022-12-10T00:48:37;97801.63;;;9.02;100.00
46129;BME280;31860;45.186;5.790;2022-12-10T00:51:13;97792.94;;;9.03;100.00
46129;BME280;31860;45.186;5.790;2022-12-10T00:53:40;97786.88;;;9.01;100.00
46129;BME280;31860;45.186;5.790;2022-12-10T00:56:08;97793.84;;;9.02;100.00
46129;BME280;31860;45.186;5.790;2022-12-10T00:58:35;97783.44;;;9.01;100.00
46129;BME280;31860;45.186;5.790;2022-12-10T01:03:54;97793.00;;;9.00;100.00
46129;BME280;31860;45.186;5.790;2022-12-10T01:06:34;97788.66;;;9.01;100.00
46129;BME280;31860;45.186;5.790;2022-12-10T01:09:03;97785.19;;;9.00;100.00
46129;BME280;31860;45.186;5.790;2022-12-10T01:11:32;97786.91;;;9.00;100.00
46129;BME280;31860;45.186;5.790;2022-12-10T01:13:58;97791.28;;;8.99;100.00
46129;BME280;31860;45.186;5.790;2022-12-10T01:16:24;97791.25;;;9.01;100.00
46129;BME280;31860;45.186;5.790;2022-12-10T01:18:53;97780.88;;;8.99;100.00
46129;BME280;31860;45.186;5.790;2022-12-10T01:21:19;97781.72;;;9.00;100.00
46129;BME280;31860;45.186;5.790;2022-12-10T01:23:47;97781.72;;;9.00;100.00
46129;BME280;31860;45.186;5.790;2022-12-10T01:26:24;97790.38;;;9.00;100.00
46129;BME280;31860;45.186;5.790;2022-12-10T01:28:51;97785.22;;;8.99;100.00
46129;BME280;31860;45.186;5.790;2022-12-10T01:31:23;97792.16;;;8.98;100.00
46129;BME280;31860;45.186;5.790;2022-12-10T01:33:49;97790.41;;;8.99;100.00
46129;BME280;31860;45.186;5.790;2022-12-10T01:36:22;97797.41;;;8.97;100.00
46129;BME280;31860;45.186;5.790;2022-12-10T01:38:48;97798.25;;;8.97;100.00
46129;BME280;31860;45.186;5.790;2022-12-10T01:41:26;97800.00;;;8.97;100.00
46129;BME280;31860;45.186;5.790;2022-12-10T01:46:20;97800.03;;;8.95;100.00
46129;BME280;31860;45.186;5.790;2022-12-10T01:48:46;97806.06;;;8.96;100.00
46129;BME280;31860;45.186;5.790;2022-12-10T01:51:13;97802.63;;;8.95;100.00
46129;BME280;31860;45.186;5.790;2022-12-10T01:53:39;97798.28;;;8.94;100.00
46129;BME280;31860;45.186;5.790;2022-12-10T01:56:05;97796.56;;;8.95;100.00
46129;BME280;31860;45.186;5.790;2022-12-10T01:58:30;97798.28;;;8.94;100.00
46129;BME280;31860;45.186;5.790;2022-12-10T02:09:13;97798.34;;;8.91;100.00
46129;BME280;31860;45.186;5.790;2022-12-10T02:11:58;97802.69;;;8.91;100.00
46129;BME280;31860;45.186;5.790;2022-12-10T02:14:41;97807.06;;;8.89;100.00
46129;BME280;31860;45.186;5.790;2022-12-10T02:17:16;97818.38;;;8.88;100.00
46129;BME280;31860;45.186;5.790;2022-12-10T02:19:57;97814.00;;;8.88;100.00
46129;BME280;31860;45.186;5.790;2022-12-10T02:22:26;97811.44;;;8.87;100.00
46129;BME280;31860;45.186;5.790;2022-12-10T02:24:54;97810.56;;;8.86;100.00
46129;BME280;31860;45.186;5.790;2022-12-10T02:28:03;97813.16;;;8.86;100.00
46129;BME280;31860;45.186;5.790;2022-12-10T02:30:09;97813.16;;;8.86;100.00
46129;BME280;31860;45.186;5.790;2022-12-10T02:32:39;97819.31;;;8.84;100.00
46129;BME280;31860;45.186;5.790;2022-12-10T02:35:12;97818.41;;;8.85;100.00
46129;BME280;31860;45.186;5.790;2022-12-10T02:37:45;97816.66;;;8.85;100.00
46129;BME280;31860;45.186;5.790;2022-12-10T02:40:17;97813.22;;;8.83;100.00
46129;BME280;31860;45.186;5.790;2022-12-10T02:42:45;97814.13;;;8.81;100.00
46129;BME280;31860;45.186;5.790;2022-12-10T02:45:13;97823.69;;;8.80;100.00
46129;BME280;31860;45.186;5.790;2022-12-10T02:47:39;97810.69;;;8.79;100.00
46129;BME280;31860;45.186;5.790;2022-12-10T02:50:06;97821.94;;;8.81;100.00
46129;BME280;31860;45.186;5.790;2022-12-10T02:52:32;97817.63;;;8.80;100.00
46129;BME280;31860;45.186;5.790;2022-12-10T02:54:58;97808.94;;;8.79;100.00
46129;BME280;31860;45.186;5.790;2022-12-10T03:08:26;97796.06;;;8.72;100.00
46129;BME280;31860;45.186;5.790;2022-12-10T03:13:36;97789.13;;;8.72;100.00
46129;BME280;31860;45.186;5.790;2022-12-10T03:16:04;97792.59;;;8.71;100.00
46129;BME280;31860;45.186;5.790;2022-12-10T03:18:31;97791.72;;;8.72;100.00
46129;BME280;31860;45.186;5.790;2022-12-10T03:21:04;97787.38;;;8.71;100.00
46129;BME280;31860;45.186;5.790;2022-12-10T03:23:33;97790.88;;;8.70;100.00
46129;BME280;31860;45.186;5.790;2022-12-10T03:26:00;97785.69;;;8.70;100.00
46129;BME280;31860;45.186;5.790;2022-12-10T03:28:32;97785.72;;;8.69;100.00
46129;BME280;31860;45.186;5.790;2022-12-10T03:31:00;97785.69;;;8.70;100.00
46129;BME280;31860;45.186;5.790;2022-12-10T03:33:27;97784.81;;;8.70;100.00
46129;BME280;31860;45.186;5.790;2022-12-10T03:35:53;97790.91;;;8.69;100.00
46129;BME280;31860;45.186;5.790;2022-12-10T03:38:18;97787.44;;;8.68;100.00
46129;BME280;31860;45.186;5.790;2022-12-10T03:40:44;97789.19;;;8.69;100.00
46129;BME280;31860;45.186;5.790;2022-12-10T03:43:12;97780.53;;;8.67;100.00
46129;BME280;31860;45.186;5.790;2022-12-10T03:45:41;97784.88;;;8.67;100.00
46129;BME280;31860;45.186;5.790;2022-12-10T03:48:06;97788.34;;;8.67;100.00
46129;BME280;31860;45.186;5.790;2022-12-10T03:50:32;97790.09;;;8.65;100.00
46129;BME280;31860;45.186;5.790;2022-12-10T03:52:57;97788.34;;;8.66;100.00
46129;BME280;31860;45.186;5.790;2022-12-10T03:55:23;97791.81;;;8.66;100.00
46129;BME280;31860;45.186;5.790;2022-12-10T03:57:48;97803.09;;;8.67;100.00
46129;BME280;31860;45.186;5.790;2022-12-10T04:00:14;97792.69;;;8.67;100.00
46129;BME280;31860;45.186;5.790;2022-12-10T04:02:40;97798.75;;;8.66;100.00
46129;BME280;31860;45.186;5.790;2022-12-10T04:05:06;97797.03;;;8.65;100.00
46129;BME280;31860;45.186;5.790;2022-12-10T04:07:32;97802.22;;;8.66;100.00
46129;BME280;31860;45.186;5.790;2022-12-10T04:09:57;97803.09;;;8.67;100.00
46129;BME280;31860;45.186;5.790;2022-12-10T04:12:23;97823.91;;;8.67;100.00
46129;BME280;31860;45.186;5.790;2022-12-10T04:14:48;97820.44;;;8.66;100.00
46129;BME280;31860;45.186;5.790;2022-12-10T04:17:33;97815.25;;;8.65;100.00
46129;BME280;31860;45.186;5.790;2022-12-10T04:20:01;97832.59;;;8.64;100.00
46129;BME280;31860;45.186;5.790;2022-12-10T04:22:26;97834.38;;;8.62;100.00
46129;BME280;31860;45.186;5.790;2022-12-10T04:25:12;97828.31;;;8.60;100.00
46129;BME280;31860;45.186;5.790;2022-12-10T04:27:56;97835.31;;;8.56;100.00
46129;BME280;31860;45.186;5.790;2022-12-10T04:30:22;97832.78;;;8.50;99.66
46129;BME280;31860;45.186;5.790;2022-12-10T04:32:47;97836.34;;;8.45;99.77
46129;BME280;31860;45.186;5.790;2022-12-10T04:35:13;97838.94;;;8.45;100.00
46129;BME280;31860;45.186;5.790;2022-12-10T04:37:39;97837.25;;;8.42;100.00
46129;BME280;31860;45.186;5.790;2022-12-10T04:40:04;97848.53;;;8.41;100.00
46129;BME280;31860;45.186;5.790;2022-12-10T04:42:30;97849.47;;;8.39;100.00
46129;BME280;31860;45.186;5.790;2022-12-10T04:44:56;97852.09;;;8.34;100.00
46129;BME280;31860;45.186;5.790;2022-12-10T04:47:21;97860.78;;;8.35;100.00
46129;BME280;31860;45.186;5.790;2022-12-10T04:49:47;97865.13;;;8.34;100.00
46129;BME280;31860;45.186;5.790;2022-12-10T04:52:14;97861.63;;;8.34;100.00
46129;BME280;31860;45.186;5.790;2022-12-10T04:54:40;97864.28;;;8.32;100.00
46129;BME280;31860;45.186;5.790;2022-12-10T04:57:06;97865.13;;;8.33;100.00
46129;BME280;31860;45.186;5.790;2022-12-10T04:59:32;97869.47;;;8.32;100.00
46129;BME280;31860;45.186;5.790;2022-12-10T05:01:58;97865.16;;;8.31;100.00
46129;BME280;31860;45.186;5.790;2022-12-10T05:04:23;97861.72;;;8.29;100.00
46129;BME280;31860;45.186;5.790;2022-12-10T05:06:49;97862.56;;;8.30;100.00
46129;BME280;31860;45.186;5.790;2022-12-10T05:09:15;97866.91;;;8.29;100.00
46129;BME280;31860;45.186;5.790;2022-12-10T05:11:41;97872.13;;;8.28;100.00
46129;BME280;31860;45.186;5.790;2022-12-10T05:14:10;97873.00;;;8.28;100.00
46129;BME280;31860;45.186;5.790;2022-12-10T05:16:36;97878.16;;;8.30;100.00
46129;BME280;31860;45.186;5.790;2022-12-10T05:19:01;97885.13;;;8.28;100.00
46129;BME280;31860;45.186;5.790;2022-12-10T05:21:28;97891.19;;;8.28;100.00
46129;BME280;31860;45.186;5.790;2022-12-10T05:24:15;97892.06;;;8.26;100.00
46129;BME280;31860;45.186;5.790;2022-12-10T05:26:41;97889.47;;;8.26;100.00
46129;BME280;31860;45.186;5.790;2022-12-10T05:29:08;97900.78;;;8.25;100.00
46129;BME280;31860;45.186;5.790;2022-12-10T05:31:34;97905.09;;;8.24;100.00
46129;BME280;31860;45.186;5.790;2022-12-10T05:33:59;97910.28;;;8.26;100.00
46129;BME280;31860;45.186;5.790;2022-12-10T05:36:28;97905.06;;;8.29;100.00
46129;BME280;31860;45.186;5.790;2022-12-10T05:38:55;97905.94;;;8.29;100.00
46129;BME280;31860;45.186;5.790;2022-12-10T05:41:23;97910.25;;;8.29;100.00
46129;BME280;31860;45.186;5.790;2022-12-10T05:43:50;97909.41;;;8.27;100.00
46129;BME280;31860;45.186;5.790;2022-12-10T05:46:20;97910.28;;;8.26;100.00
46129;BME280;31860;45.186;5.790;2022-12-10T05:48:47;97914.66;;;8.25;100.00
46129;BME280;31860;45.186;5.790;2022-12-10T05:51:19;97926.78;;;8.25;100.00
46129;BME280;31860;45.186;5.790;2022-12-10T05:53:45;97917.25;;;8.24;100.00
46129;BME280;31860;45.186;5.790;2022-12-10T05:56:14;97925.06;;;8.25;100.00
46129;BME280;31860;45.186;5.790;2022-12-10T05:58:41;97914.63;;;8.24;100.00
46129;BME280;31860;45.186;5.790;2022-12-10T06:01:18;97917.25;;;8.24;100.00
46129;BME280;31860;45.186;5.790;2022-12-10T06:03:44;97920.72;;;8.24;100.00
46129;BME280;31860;45.186;5.790;2022-12-10T06:06:11;97919.84;;;8.21;100.00
46129;BME280;31860;45.186;5.790;2022-12-10T06:08:36;97927.66;;;8.21;100.00
46129;BME280;31860;45.186;5.790;2022-12-10T06:11:07;97919.88;;;8.19;100.00
46129;BME280;31860;45.186;5.790;2022-12-10T06:13:33;97932.00;;;8.19;100.00
46129;BME280;31860;45.186;5.790;2022-12-10T06:15:58;97933.75;;;8.17;100.00
46129;BME280;31860;45.186;5.790;2022-12-10T06:18:24;97932.91;;;8.15;100.00
46129;BME280;31860;45.186;5.790;2022-12-10T06:20:50;97936.38;;;8.15;99.54
46129;BME280;31860;45.186;5.790;2022-12-10T06:23:16;97929.47;;;8.16;99.74
46129;BME280;31860;45.186;5.790;2022-12-10T06:25:42;97938.13;;;8.15;99.67
46129;BME280;31860;45.186;5.790;2022-12-10T06:28:08;97949.41;;;8.14;99.87
46129;BME280;31860;45.186;5.790;2022-12-10T06:30:34;97946.81;;;8.11;99.29
46129;BME280;31860;45.186;5.790;2022-12-10T06:32:59;97947.72;;;8.10;98.95
46129;BME280;31860;45.186;5.790;2022-12-10T06:35:25;97947.75;;;8.07;99.37
46129;BME280;31860;45.186;5.790;2022-12-10T06:37:51;97958.16;;;8.05;98.60
46129;BME280;31860;45.186;5.790;2022-12-10T06:40:17;97952.97;;;8.04;98.31
46129;BME280;31860;45.186;5.790;2022-12-10T06:42:43;97955.63;;;7.99;98.43
46129;BME280;31860;45.186;5.790;2022-12-10T06:45:09;97962.56;;;7.96;98.72
46129;BME280;31860;45.186;5.790;2022-12-10T06:47:35;97967.81;;;7.93;97.62
46129;BME280;31860;45.186;5.790;2022-12-10T06:50:01;97967.91;;;7.84;97.28
46129;BME280;31860;45.186;5.790;2022-12-10T06:52:26;97967.91;;;7.81;97.14
46129;BME280;31860;45.186;5.790;2022-12-10T06:54:52;97970.56;;;7.78;96.91
46129;BME280;31860;45.186;5.790;2022-12-10T06:57:19;97970.59;;;7.73;97.51
46129;BME280;31860;45.186;5.790;2022-12-10T06:59:45;97974.06;;;7.74;98.71
46129;BME280;31860;45.186;5.790;2022-12-10T07:02:11;97970.59;;;7.76;98.41
46129;BME280;31860;45.186;5.790;2022-12-10T07:04:36;97981.84;;;7.75;97.61
46129;BME280;31860;45.186;5.790;2022-12-10T07:07:02;97981.81;;;7.78;97.66
46129;BME280;31860;45.186;5.790;2022-12-10T07:09:27;97977.50;;;7.77;97.40
46129;BME280;31860;45.186;5.790;2022-12-10T07:11:53;97976.59;;;7.80;97.25
46129;BME280;31860;45.186;5.790;2022-12-10T07:14:19;97975.72;;;7.82;97.27
46129;BME280;31860;45.186;5.790;2022-12-10T07:16:44;97975.72;;;7.84;96.78
46129;BME280;31860;45.186;5.790;2022-12-10T07:19:11;97976.56;;;7.83;96.20
46129;BME280;31860;45.186;5.790;2022-12-10T07:21:39;97978.31;;;7.81;95.62
46129;BME280;31860;45.186;5.790;2022-12-10T07:24:14;97984.41;;;7.80;96.46
46129;BME280;31860;45.186;5.790;2022-12-10T07:26:41;97992.25;;;7.77;96.79
46129;BME280;31860;45.186;5.790;2022-12-10T07:29:12;98001.78;;;7.75;96.79
46129;BME280;31860;45.186;5.790;2022-12-10T07:31:38;97999.19;;;7.75;96.67
46129;BME280;31860;45.186;5.790;2022-12-10T07:34:04;98001.75;;;7.76;96.56
46129;BME280;31860;45.186;5.790;2022-12-10T07:36:29;97995.69;;;7.77;95.20
46129;BME280;31860;45.186;5.790;2022-12-10T07:38:55;98000.03;;;7.77;95.54
46129;BME280;31860;45.186;5.790;2022-12-10T07:41:22;98000.88;;;7.77;95.61
46129;BME280;31860;45.186;5.790;2022-12-10T07:43:48;98000.03;;;7.77;94.96
46129;BME280;31860;45.186;5.790;2022-12-10T07:46:15;98005.22;;;7.78;94.60
46129;BME280;31860;45.186;5.790;2022-12-10T07:48:43;98006.09;;;7.79;94.79
46129;BME280;31860;45.186;5.790;2022-12-10T07:51:09;98011.28;;;7.79;94.74
46129;BME280;31860;45.186;5.790;2022-12-10T07:53:34;98013.88;;;7.76;95.16
46129;BME280;31860;45.186;5.790;2022-12-10T07:56:00;98016.50;;;7.74;95.10
46129;BME280;31860;45.186;5.790;2022-12-10T07:58:25;98015.63;;;7.77;94.25
46129;BME280;31860;45.186;5.790;2022-12-10T08:00:51;98028.66;;;7.71;93.98
46129;BME280;31860;45.186;5.790;2022-12-10T08:03:16;98021.72;;;7.69;93.66
46129;BME280;31860;45.186;5.790;2022-12-10T08:05:42;98025.22;;;7.67;94.15
46129;BME280;31860;45.186;5.790;2022-12-10T08:08:07;98026.97;;;7.66;94.21
46129;BME280;31860;45.186;5.790;2022-12-10T08:10:34;98031.31;;;7.63;94.39
46129;BME280;31860;45.186;5.790;2022-12-10T08:13:00;98027.00;;;7.60;94.34
46129;BME280;31860;45.186;5.790;2022-12-10T08:15:25;98033.91;;;7.60;94.38
46129;BME280;31860;45.186;5.790;2022-12-10T08:17:53;98035.69;;;7.56;94.64
46129;BME280;31860;45.186;5.790;2022-12-10T08:20:19;98038.28;;;7.56;94.76
46129;BME280;31860;45.186;5.790;2022-12-10T08:22:44;98035.69;;;7.55;95.03
46129;BME280;31860;45.186;5.790;2022-12-10T08:25:09;98037.44;;;7.56;94.90
46129;BME280;31860;45.186;5.790;2022-12-10T08:27:35;98044.34;;;7.57;94.85
46129;BME280;31860;45.186;5.790;2022-12-10T08:30:01;98043.47;;;7.56;94.95
46129;BME280;31860;45.186;5.790;2022-12-10T08:32:26;98048.66;;;7.58;95.21
46129;BME280;31860;45.186;5.790;2022-12-10T08:34:52;98046.06;;;7.56;94.63
46129;BME280;31860;45.186;5.790;2022-12-10T08:37:17;98058.22;;;7.57;93.79
46129;BME280;31860;45.186;5.790;2022-12-10T08:39:43;98058.22;;;7.57;93.77
46129;BME280;31860;45.186;5.790;2022-12-10T08:42:09;98060.81;;;7.54;93.98
46129;BME280;31860;45.186;5.790;2022-12-10T08:44:34;98066.03;;;7.51;93.12
46129;BME280;31860;45.186;5.790;2022-12-10T08:46:59;98072.94;;;7.54;92.47
46129;BME280;31860;45.186;5.790;2022-12-10T08:49:25;98074.66;;;7.55;92.28
46129;BME280;31860;45.186;5.790;2022-12-10T08:51:50;98074.66;;;7.55;92.63
46129;BME280;31860;45.186;5.790;2022-12-10T08:54:16;98079.00;;;7.54;92.82
46129;BME280;31860;45.186;5.790;2022-12-10T08:56:41;98085.94;;;7.55;92.30
46129;BME280;31860;45.186;5.790;2022-12-10T08:59:07;98086.78;;;7.56;92.07
46129;BME280;31860;45.186;5.790;2022-12-10T09:01:33;98090.25;;;7.55;91.58
46129;BME280;31860;45.186;5.790;2022-12-10T09:03:58;98091.13;;;7.55;92.09
46129;BME280;31860;45.186;5.790;2022-12-10T09:06:26;98094.56;;;7.54;91.62
46129;BME280;31860;45.186;5.790;2022-12-10T09:08:51;98100.66;;;7.55;91.56
46129;BME280;31860;45.186;5.790;2022-12-10T09:11:26;98104.97;;;7.53;91.19
46129;BME280;31860;45.186;5.790;2022-12-10T09:13:52;98106.72;;;7.52;90.87
46129;BME280;31860;45.186;5.790;2022-12-10T09:16:18;98115.38;;;7.53;90.61
46129;BME280;31860;45.186;5.790;2022-12-10T09:18:44;98115.38;;;7.51;90.74
46129;BME280;31860;45.186;5.790;2022-12-10T09:21:12;98105.00;;;7.50;90.52
46129;BME280;31860;45.186;5.790;2022-12-10T09:23:39;98105.84;;;7.50;90.33
46129;BME280;31860;45.186;5.790;2022-12-10T09:26:07;98113.66;;;7.52;90.43
46129;BME280;31860;45.186;5.790;2022-12-10T09:28:33;98130.94;;;7.54;91.17
46129;BME280;31860;45.186;5.790;2022-12-10T09:31:00;98128.38;;;7.50;91.26
46129;BME280;31860;45.186;5.790;2022-12-10T09:33:27;98128.38;;;7.53;91.02
46129;BME280;31860;45.186;5.790;2022-12-10T09:35:52;98140.50;;;7.49;90.71
46129;BME280;31860;45.186;5.790;2022-12-10T09:38:18;98129.25;;;7.47;90.50
46129;BME280;31860;45.186;5.790;2022-12-10T09:41:03;98127.56;;;7.46;89.75
46129;BME280;31860;45.186;5.790;2022-12-10T09:46:06;98138.84;;;7.41;89.53
46129;BME280;31860;45.186;5.790;2022-12-10T09:51:26;98136.28;;;7.33;90.40
46129;BME280;31860;45.186;5.790;2022-12-10T09:53:53;98134.53;;;7.32;90.91
46129;BME280;31860;45.186;5.790;2022-12-10T09:56:34;98127.59;;;7.30;91.62
46129;BME280;31860;45.186;5.790;2022-12-10T09:59:06;98143.19;;;7.31;92.12
46129;BME280;31860;45.186;5.790;2022-12-10T10:01:36;98136.25;;;7.32;93.25
46129;BME280;31860;45.186;5.790;2022-12-10T10:04:03;98134.50;;;7.34;92.84
46129;BME280;31860;45.186;5.790;2022-12-10T10:06:29;98128.47;;;7.35;92.34
46129;BME280;31860;45.186;5.790;2022-12-10T10:08:58;98134.50;;;7.34;92.13
46129;BME280;31860;45.186;5.790;2022-12-10T10:11:29;98140.56;;;7.36;91.65
46129;BME280;31860;45.186;5.790;2022-12-10T10:13:59;98137.97;;;7.36;91.54
46129;BME280;31860;45.186;5.790;2022-12-10T10:19:25;98137.09;;;7.35;91.28
46129;BME280;31860;45.186;5.790;2022-12-10T10:21:51;98139.69;;;7.35;91.67
46129;BME280;31860;45.186;5.790;2022-12-10T10:24:20;98140.56;;;7.36;92.23
46129;BME280;31860;45.186;5.790;2022-12-10T10:26:47;98144.03;;;7.38;92.11
46129;BME280;31860;45.186;5.790;2022-12-10T10:29:16;98138.84;;;7.41;92.05
46129;BME280;31860;45.186;5.790;2022-12-10T10:31:43;98150.06;;;7.41;91.75
46129;BME280;31860;45.186;5.790;2022-12-10T10:34:22;98147.44;;;7.43;91.54
46129;BME280;31860;45.186;5.790;2022-12-10T10:36:56;98144.84;;;7.43;92.35
46129;BME280;31860;45.186;5.790;2022-12-10T10:39:30;98147.44;;;7.47;93.46
46129;BME280;31860;45.186;5.790;2022-12-10T10:41:58;98149.19;;;7.48;94.89
46129;BME280;31860;45.186;5.790;2022-12-10T10:44:35;98155.22;;;7.52;95.45
46129;BME280;31860;45.186;5.790;2022-12-10T10:47:02;98158.69;;;7.54;96.11
46129;BME280;31860;45.186;5.790;2022-12-10T10:49:32;98156.94;;;7.56;96.32
46129;BME280;31860;45.186;5.790;2022-12-10T10:52:19;98156.03;;;7.58;96.38
46129;BME280;31860;45.186;5.790;2022-12-10T10:54:46;98153.44;;;7.61;96.12
46129;BME280;31860;45.186;5.790;2022-12-10T10:57:15;98158.63;;;7.63;95.37
46129;BME280;31860;45.186;5.790;2022-12-10T10:59:43;98162.97;;;7.59;93.38
46129;BME280;31860;45.186;5.790;2022-12-10T11:04:52;98155.19;;;7.59;92.44
46129;BME280;31860;45.186;5.790;2022-12-10T11:07:34;98156.94;;;7.57;92.31
46129;BME280;31860;45.186;5.790;2022-12-10T11:10:02;98164.72;;;7.57;92.14
46129;BME280;31860;45.186;5.790;2022-12-10T11:12:34;98165.59;;;7.55;91.25
46129;BME280;31860;45.186;5.790;2022-12-10T11:15:01;98164.72;;;7.53;90.80
46129;BME280;31860;45.186;5.790;2022-12-10T11:17:27;98172.56;;;7.50;89.48
46129;BME280;31860;45.186;5.790;2022-12-10T11:19:59;98176.88;;;7.51;88.92
46129;BME280;31860;45.186;5.790;2022-12-10T11:22:32;98173.38;;;7.50;89.25
46129;BME280;31860;45.186;5.790;2022-12-10T11:24:59;98178.59;;;7.52;90.11
46129;BME280;31860;45.186;5.790;2022-12-10T11:30:18;98176.84;;;7.57;88.41
46129;BME280;31860;45.186;5.790;2022-12-10T11:33:21;98186.34;;;7.56;88.93
46129;BME280;31860;45.186;5.790;2022-12-10T11:36:29;98194.13;;;7.58;89.09
46129;BME280;31860;45.186;5.790;2022-12-10T11:39:19;98195.88;;;7.60;87.71
46129;BME280;31860;45.186;5.790;2022-12-10T11:42:04;98191.56;;;7.59;86.47
46129;BME280;31860;45.186;5.790;2022-12-10T11:44:49;98194.16;;;7.59;85.40
46129;BME280;31860;45.186;5.790;2022-12-10T11:47:33;98197.59;;;7.60;84.15
46129;BME280;31860;45.186;5.790;2022-12-10T11:50:17;98195.00;;;7.60;83.73
46129;BME280;31860;45.186;5.790;2022-12-10T12:02:16;98198.50;;;7.56;81.21
46129;BME280;31860;45.186;5.790;2022-12-10T12:07:22;98201.09;;;7.56;81.63
46129;BME280;31860;45.186;5.790;2022-12-10T12:10:13;98195.91;;;7.56;81.77
46129;BME280;31860;45.186;5.790;2022-12-10T12:15:26;98203.69;;;7.59;80.82
46129;BME280;31860;45.186;5.790;2022-12-10T12:18:21;98199.34;;;7.61;80.02
46129;BME280;31860;45.186;5.790;2022-12-10T12:20:53;98207.16;;;7.59;79.48
46129;BME280;31860;45.186;5.790;2022-12-10T12:23:29;98205.41;;;7.58;78.74
46129;BME280;31860;45.186;5.790;2022-12-10T12:26:00;98209.72;;;7.58;78.73
46129;BME280;31860;45.186;5.790;2022-12-10T12:28:52;98213.22;;;7.57;78.24
46129;BME280;31860;45.186;5.790;2022-12-10T12:31:30;98209.75;;;7.59;78.37
46129;BME280;31860;45.186;5.790;2022-12-10T12:34:33;98211.47;;;7.59;77.64
46129;BME280;31860;45.186;5.790;2022-12-10T12:37:02;98213.19;;;7.58;77.65
46129;BME280;31860;45.186;5.790;2022-12-10T12:42:08;98210.59;;;7.58;77.04
46129;BME280;31860;45.186;5.790;2022-12-10T12:44:53;98211.47;;;7.59;76.76
46129;BME280;31860;45.186;5.790;2022-12-10T12:47:33;98202.81;;;7.58;76.61
46129;BME280;31860;45.186;5.790;2022-12-10T12:50:01;98208.88;;;7.59;76.93
46129;BME280;31860;45.186;5.790;2022-12-10T12:52:43;98210.59;;;7.58;77.18
46129;BME280;31860;45.186;5.790;2022-12-10T12:55:32;98211.47;;;7.59;76.72
46129;BME280;31860;45.186;5.790;2022-12-10T12:58:52;98213.19;;;7.60;76.55
46129;BME280;31860;45.186;5.790;2022-12-10T13:01:06;98212.31;;;7.58;76.19
46129;BME280;31860;45.186;5.790;2022-12-10T13:03:43;98216.66;;;7.59;75.83
46129;BME280;31860;45.186;5.790;2022-12-10T13:06:25;98221.88;;;7.59;76.20
46129;BME280;31860;45.186;5.790;2022-12-10T13:11:40;98225.34;;;7.59;75.42
46129;BME280;31860;45.186;5.790;2022-12-10T13:19:29;98233.13;;;7.61;74.19
46129;BME280;31860;45.186;5.790;2022-12-10T13:22:11;98240.91;;;7.59;73.80
46129;BME280;31860;45.186;5.790;2022-12-10T13:27:19;98243.50;;;7.56;72.98
46129;BME280;31860;45.186;5.790;2022-12-10T13:37:35;98257.38;;;7.55;73.46
46129;BME280;31860;45.186;5.790;2022-12-10T13:42:36;98260.88;;;7.51;73.17
46129;BME280;31860;45.186;5.790;2022-12-10T13:48:15;98255.69;;;7.44;72.46
46129;BME280;31860;45.186;5.790;2022-12-10T13:50:48;98258.31;;;7.42;72.06
46129;BME280;31860;45.186;5.790;2022-12-10T13:58:50;98256.53;;;7.43;71.29
46129;BME280;31860;45.186;5.790;2022-12-10T14:01:38;98256.53;;;7.43;71.12
46129;BME280;31860;45.186;5.790;2022-12-10T14:04:46;98259.16;;;7.41;70.46
46129;BME280;31860;45.186;5.790;2022-12-10T14:07:11;98267.81;;;7.37;70.74
46129;BME280;31860;45.186;5.790;2022-12-10T14:09:51;98278.19;;;7.37;70.08
46129;BME280;31860;45.186;5.790;2022-12-10T14:12:24;98271.31;;;7.35;70.09
46129;BME280;31860;45.186;5.790;2022-12-10T14:14:55;98273.03;;;7.34;70.42
46129;BME280;31860;45.186;5.790;2022-12-10T14:17:36;98284.28;;;7.35;70.40
46129;BME280;31860;45.186;5.790;2022-12-10T14:20:04;98291.19;;;7.36;70.13
46129;BME280;31860;45.186;5.790;2022-12-10T14:22:39;98286.88;;;7.36;69.54
46129;BME280;31860;45.186;5.790;2022-12-10T14:25:14;98282.53;;;7.35;69.50
46129;BME280;31860;45.186;5.790;2022-12-10T14:27:41;98290.31;;;7.35;69.83
46129;BME280;31860;45.186;5.790;2022-12-10T14:30:22;98302.47;;;7.36;69.70
46129;BME280;31860;45.186;5.790;2022-12-10T14:32:49;98303.31;;;7.38;69.20
46129;BME280;31860;45.186;5.790;2022-12-10T14:35:27;98305.94;;;7.37;68.65
46129;BME280;31860;45.186;5.790;2022-12-10T14:37:58;98304.19;;;7.37;69.13
46129;BME280;31860;45.186;5.790;2022-12-10T14:40:31;98304.19;;;7.34;69.07
46129;BME280;31860;45.186;5.790;2022-12-10T14:43:17;98304.19;;;7.37;68.44
46129;BME280;31860;45.186;5.790;2022-12-10T14:45:47;98304.19;;;7.37;68.07
46129;BME280;31860;45.186;5.790;2022-12-10T14:48:14;98314.56;;;7.37;67.97
46129;BME280;31860;45.186;5.790;2022-12-10T14:50:42;98317.16;;;7.37;68.13